createdAt,value
2022-07-26T00:01:48.144Z,19.70
2022-07-26T00:12:10.592Z,19.70
2022-07-26T00:22:36.302Z,19.60
2022-07-26T00:32:57.747Z,19.60
2022-07-26T00:43:21.063Z,19.60
2022-07-26T00:53:42.690Z,19.30
2022-07-26T01:04:06.459Z,19.30
2022-07-26T01:14:28.291Z,19.20
2022-07-26T01:24:51.560Z,19.20
2022-07-26T01:35:13.020Z,19.10
2022-07-26T01:45:36.229Z,19.10
2022-07-26T01:55:57.654Z,19.10
2022-07-26T02:06:20.567Z,19.10
2022-07-26T02:16:41.856Z,19.10
2022-07-26T02:27:06.251Z,18.90
2022-07-26T02:37:27.898Z,18.70
2022-07-26T02:47:52.910Z,18.60
2022-07-26T02:58:15.579Z,18.50
2022-07-26T03:08:38.620Z,18.30
2022-07-26T03:19:01.736Z,18.30
2022-07-26T03:29:25.224Z,18.10
2022-07-26T03:39:46.626Z,18.00
2022-07-26T03:50:13.676Z,18.00
2022-07-26T04:00:35.504Z,18.00
2022-07-26T04:10:58.772Z,18.00
2022-07-26T04:21:20.054Z,18.10
2022-07-26T04:31:43.220Z,18.20
2022-07-26T04:42:05.131Z,18.20
2022-07-26T04:52:27.945Z,18.40
2022-07-26T05:02:50.417Z,18.60
2022-07-26T05:13:13.370Z,18.70
2022-07-26T05:23:35.260Z,18.70
2022-07-26T05:33:57.877Z,18.70
2022-07-26T05:44:19.554Z,19.30
2022-07-26T05:54:44.227Z,19.60
2022-07-26T06:05:06.568Z,19.70
2022-07-26T06:15:29.317Z,20.00
2022-07-26T06:25:51.729Z,20.10
2022-07-26T06:36:15.035Z,20.40
2022-07-26T06:46:36.800Z,20.40
2022-07-26T06:56:59.863Z,21.10
2022-07-26T07:07:21.461Z,21.10
2022-07-26T07:17:44.339Z,21.10
2022-07-26T07:28:06.395Z,22.20
2022-07-26T07:38:29.836Z,21.40
2022-07-26T07:48:53.799Z,22.10
2022-07-26T07:59:16.936Z,22.10
2022-07-26T08:09:38.413Z,21.90
2022-07-26T08:20:06.870Z,22.80
2022-07-26T08:30:30.431Z,23.50
2022-07-26T08:40:54.096Z,23.40
2022-07-26T08:51:17.394Z,23.60
2022-07-26T09:01:55.925Z,22.30
2022-07-26T09:12:19.320Z,24.10
2022-07-26T09:23:02.647Z,23.70
2022-07-26T09:33:24.917Z,24.40
2022-07-26T09:43:53.760Z,23.10
2022-07-26T09:54:19.552Z,23.50
2022-07-26T10:04:43.725Z,25.20
2022-07-26T10:15:05.953Z,24.40
2022-07-26T10:25:49.693Z,24.60
2022-07-26T10:36:23.982Z,23.90
2022-07-26T10:47:15.750Z,23.90
2022-07-26T10:57:39.832Z,24.20
2022-07-26T11:08:09.280Z,24.20
2022-07-26T11:18:35.358Z,25.50
2022-07-26T11:29:06.452Z,25.10
2022-07-26T11:39:30.601Z,25.60
2022-07-26T11:50:13.886Z,24.80
2022-07-26T12:00:35.849Z,25.90
2022-07-26T12:10:58.783Z,24.40
2022-07-26T12:21:21.713Z,24.20
2022-07-26T12:31:45.134Z,23.20
2022-07-26T12:42:33.342Z,20.10
2022-07-26T12:53:03.682Z,20.10
2022-07-26T13:03:25.333Z,19.50
2022-07-26T13:13:49.436Z,20.30
2022-07-26T13:24:11.949Z,19.90
2022-07-26T13:34:39.105Z,19.80
2022-07-26T13:45:00.825Z,19.60
2022-07-26T13:55:23.795Z,19.70
2022-07-26T14:05:45.210Z,19.90
2022-07-26T14:16:08.282Z,20.60
2022-07-26T14:26:30.936Z,20.50
2022-07-26T14:36:54.053Z,20.60
2022-07-26T14:47:15.562Z,20.70
2022-07-26T14:57:40.190Z,21.10
2022-07-26T15:08:06.097Z,20.90
2022-07-26T15:18:29.776Z,21.40
2022-07-26T15:28:51.495Z,22.30
2022-07-26T15:39:18.316Z,21.40
2022-07-26T15:49:40.908Z,22.80
2022-07-26T16:00:11.735Z,22.40
2022-07-26T16:10:33.479Z,22.80
2022-07-26T16:20:56.820Z,22.00
2022-07-26T16:31:18.376Z,23.10
2022-07-26T16:41:41.552Z,22.30
2022-07-26T16:52:02.940Z,22.00
2022-07-26T17:02:25.738Z,22.20
2022-07-26T17:12:47.591Z,22.60
2022-07-26T17:23:11.274Z,22.60
2022-07-26T17:33:32.946Z,22.40
2022-07-26T17:43:55.992Z,22.60
2022-07-26T17:54:17.209Z,22.30
2022-07-26T18:04:40.615Z,21.60
2022-07-26T18:15:02.506Z,21.80
2022-07-26T18:25:25.759Z,21.50
2022-07-26T18:35:47.662Z,21.30
2022-07-26T18:46:10.752Z,20.90
2022-07-26T18:56:32.530Z,20.60
2022-07-26T19:06:56.997Z,20.40
2022-07-26T19:17:18.988Z,20.20
2022-07-26T19:27:42.076Z,20.00
2022-07-26T19:38:04.031Z,19.70
2022-07-26T19:48:27.352Z,19.60
2022-07-26T19:58:49.404Z,19.30
2022-07-26T20:09:13.329Z,19.10
2022-07-26T20:19:35.044Z,18.90
2022-07-26T20:30:01.147Z,18.90
2022-07-26T20:40:23.036Z,18.50
2022-07-26T20:50:49.087Z,18.30
2022-07-26T21:01:12.497Z,18.70
2022-07-26T21:11:36.298Z,18.60
2022-07-26T21:21:58.054Z,18.70
2022-07-26T21:32:21.388Z,18.50
2022-07-26T21:42:43.063Z,18.50
2022-07-26T21:53:05.760Z,18.50
2022-07-26T22:03:27.370Z,18.40
2022-07-26T22:13:50.294Z,18.40
2022-07-26T22:24:12.137Z,18.30
2022-07-26T22:34:35.373Z,18.20
2022-07-26T22:44:57.309Z,18.10
2022-07-26T22:55:20.442Z,18.00
2022-07-26T23:05:46.525Z,17.80
2022-07-26T23:16:11.029Z,17.70
2022-07-26T23:26:32.645Z,17.60
2022-07-26T23:36:55.920Z,17.50
2022-07-26T23:47:17.640Z,17.30
2022-07-26T23:57:40.962Z,17.10
